Exu, Brazil
Current Conditions -  °F | °C
As of 8:00 PM on Wednesday 26 Nov 2014 (Local Time) from SBJU Reporting Station
Scattered Clouds Scattered Clouds  
Wind Chill: 88°   Ceiling: Unl
Heat Index: 89°   Visibility: 6mi
Dew Point: 64°   Wind: 3mph
Humidity: 46%   Direction: 200°SSW
Pressure: 29.94"   Gusts: NA
Location:  7.51°S, 39.71°W
Report Text: SBJU 262300Z 20003KT 9999 SCT020 31/18 Q1014
Loading
Personal Weather Stations






























Interactive Weather Map New forecast layout! Learn more

10-Day Weather Forecast

Advertisements
Track Severe Weather on mobile